• Join FlightAware (Why Join?)
  • Login
  • US Flag 
09:05AM EDT


 

Airport Tracker/Info


-or-


 

Live Flight TrackerFlight Track Log ✈ EJA122 ✈ 21-Jul-2013 ✈ KSAA - KGCK

Flight Track Log - Related Links

Times and Time Zones

All times are in EDT time to prevent confusion due to time zone crossing. See the EJA122 flight status page for this flight to view local times or setup timezone preferences in your user account.

Time Position Orientation Groundspeed Altitude Reporting Facility
EDT Latitude Longitude Course Direction KTS MPH feet Rate Location/Type
11:42AM 41.4125 -106.7872 116° Southeast 315 362 13,500  Level Denver Center
11:43AM 41.3778 -106.6781 113° Southeast 334 384 15,700 1,860 Climbing Denver Center
11:44AM 41.3283 -106.5522 118° Southeast 341 392 17,400 840 Climbing Denver Center
11:45AM 41.2828 -106.4361 118° Southeast 366 421 17,500 180 Climbing Denver Center
11:46AM 41.2214 -106.2878 119° Southeast 407 468 17,800 600 Climbing Denver Center
11:47AM 41.1802 -106.3270 116° Southeast  Level Estimated
11:47AM 41.1669 -106.1517 118° Southeast 408 470 18,800  Level Denver Center
11:48AM 41.1169 -106.0278 118° Southeast 401 461 20,200 1,260 Climbing Denver Center
11:49AM 41.0761 -105.9267 118° Southeast 394 453 21,400 1,440 Climbing Denver Center
11:50AM 41.0139 -105.7733 118° Southeast 394 453 23,200 1,680 Climbing Denver Center
11:51AM 40.9506 -105.6189 118° Southeast 397 457 24,900 1,260 Climbing Denver Center
11:52AM 40.8964 -105.4900 119° Southeast 400 460 25,900 900 Climbing Denver Center
11:53AM 40.8411 -105.3539 118° Southeast 417 480 26,800 480 Climbing Denver Center
11:54AM 40.7831 -105.2158 119° Southeast 428 493 27,000 60 Climbing Denver Center
11:55AM 40.7194 -105.0669 119° Southeast 463 533 27,000  Level Denver Center
11:56AM 40.6697 -104.9450 118° Southeast 471 542 27,000  Level Denver Center
11:57AM 40.5917 -104.7597 119° Southeast 482 555 27,000  Level Denver Center
11:58AM 40.5256 -104.6047 119° Southeast 482 555 27,000  Level Denver Center
11:59AM 40.4281 -104.4333 127° Southeast 488 562 27,000  Level Denver Center
12:00PM 40.3419 -104.2967 130° Southeast 485 558 27,000  Level Denver Center
12:01PM 40.2589 -104.1661 130° Southeast 470 541 27,000  Level Denver Center
12:03PM 40.1819 -104.0458 130° Southeast 433 498 27,000  Level Denver Center
12:04PM 40.1200 -103.9542 131° Southeast 421 484 27,000  Level Denver Center
12:05PM 40.0200 -103.7872 128° Southeast 418 481 27,000  Level Denver Center
12:06PM 39.9786 -103.6481 111° Southeast 409 471 27,000  Level Denver Center
12:07PM 39.9369 -103.5064 111° Southeast 418 481 27,000  Level Denver Center
12:08PM 39.8950 -103.3656 111° Southeast 419 482 27,000  Level Denver Center
12:09PM 39.8531 -103.2242 111° Southeast 420 483 27,000  Level Denver Center
12:10PM 39.8119 -103.0853 111° Southeast 414 476 27,000  Level Denver Center
12:11PM 39.7708 -102.9494 111° Southeast 406 467 27,000  Level Denver Center
12:12PM 39.7225 -102.7883 111° Southeast 400 460 27,000  Level Denver Center
12:13PM 39.6819 -102.6514 111° Southeast 399 459 27,000  Level Denver Center
12:14PM 39.6436 -102.5250 111° Southeast 395 455 27,000  Level Denver Center
12:15PM 39.6025 -102.3908 112° Southeast 394 453 27,000  Level Denver Center
12:16PM 39.5608 -102.2536 111° Southeast 390 449 27,000  Level Denver Center
12:17PM 39.5147 -102.1064 112° Southeast 395 455 27,000  Level Denver Center
12:18PM 39.4778 -101.9828 111° Southeast 390 449 27,000  Level Denver Center
12:19PM 39.4322 -101.8367 112° Southeast 392 451 27,000  Level Denver Center
12:20PM 39.3850 -101.7181 117° Southeast 391 450 27,000  Level Denver Center
12:21PM 39.2894 -101.6267 143° Southeast 387 445 27,000  Level Denver Center
12:22PM 39.2003 -101.5664 152° Southeast 379 436 27,000  Level Denver Center
12:23PM 39.0956 -101.4967 153° Southeast 380 437 27,000  Level Denver Center
12:24PM 39.0022 -101.4322 152° Southeast 389 448 27,000 -540 Level Denver Center
12:25PM 38.8794 -101.3517 153° Southeast 391 450 25,900 -1,020 Descending Denver Center
12:27PM 38.7978 -101.2975 153° Southeast 411 473 25,000 -480 Descending Denver Center
12:28PM 38.6678 -101.2103 152° Southeast 411 473 25,000 -240 Level Denver Center
12:29PM 38.5719 -101.1472 153° Southeast 406 467 24,500 -960 Descending Denver Center
12:30PM 38.4881 -101.0906 152° Southeast 424 488 23,100 -2,220 Descending Denver Center
12:31PM 38.3583 -101.0061 153° Southeast 408 470 20,000 -2,700 Descending Denver Center
12:32PM 38.2522 -100.9356 152° Southeast 389 448 17,300 -2,580 Descending Kansas City Center
12:33PM 38.1536 -100.8722 153° Southeast 364 419 14,400 -2,700 Descending Kansas City Center
12:34PM 38.0769 -100.8411 162° South 318 366 11,700 -2,820 Descending Kansas City Center
12:35PM 37.9964 -100.8078 162° South 287 330 8,600 -2,940 Descending Kansas City Center
12:36PM 37.9314 -100.7811 162° South 269 310 5,700 -1,920 Descending Kansas City Center
12:37PM 37.8711 -100.7589 164° South 249 287 4,700 -1,020 Descending Kansas City Center
12:38PM 37.8778 -100.7242 76° East 181 208 3,600 -840 Descending Kansas City Center
12:39PM 37.9139 -100.7233 North 151 174 3,000 -600 Descending Kansas City Center